Time;durP1;ratioP1;P1;durP2;ratioP2;P2;SDS_P1;SDS_P2;PMS_P1;PMS_P2;Temp;Humidity;BMP_temperature;BMP_pressure;BME280_temperature;BME280_humidity;BME280_pressure;Samples;Min_cycle;Max_cycle;Signal;HPM_P1;HPM_P2
2022/08/29 00:00:55;;;;;;;2.65;1.65;;;19.80;99.90;;;;;;5053961;28;20541;-89
2022/08/29 00:03:21;;;;;;;1.55;1.20;;;19.70;99.90;;;;;;5052993;28;20182;-89
2022/08/29 00:05:46;;;;;;;2.00;1.73;;;19.60;99.90;;;;;;5019443;28;20264;-88
2022/08/29 00:08:12;;;;;;;2.65;1.98;;;19.60;99.90;;;;;;5053490;28;20203;-90
2022/08/29 00:10:39;;;;;;;3.05;2.03;;;19.50;99.90;;;;;;5053541;28;20632;-89
2022/08/29 00:13:07;;;;;;;3.65;1.60;;;19.50;99.90;;;;;;5053184;28;20184;-88
2022/08/29 00:15:35;;;;;;;2.42;1.35;;;19.50;99.90;;;;;;5053741;28;20187;-89
2022/08/29 00:18:00;;;;;;;2.83;1.20;;;19.40;99.90;;;;;;5053217;28;20187;-89
2022/08/29 00:20:29;;;;;;;3.28;2.10;;;19.40;99.90;;;;;;5052737;28;20665;-90
2022/08/29 00:22:55;;;;;;;1.73;1.35;;;19.40;99.90;;;;;;5053441;28;20217;-89
2022/08/29 00:25:21;;;;;;;1.38;1.13;;;19.40;99.90;;;;;;5035083;28;20199;-89
2022/08/29 00:27:47;;;;;;;1.83;1.38;;;19.40;99.90;;;;;;5035753;28;20341;-89
2022/08/29 00:30:14;;;;;;;1.98;1.33;;;19.40;99.90;;;;;;5035277;28;20695;-88
2022/08/29 00:32:40;;;;;;;3.47;1.73;;;19.20;99.90;;;;;;5053119;28;20179;-89
2022/08/29 00:35:09;;;;;;;5.95;1.98;;;19.20;99.90;;;;;;5035340;28;20195;-87
2022/08/29 00:37:35;;;;;;;1.88;1.45;;;19.30;99.90;;;;;;5035601;28;20176;-88
2022/08/29 00:40:02;;;;;;;1.45;1.35;;;19.30;99.90;;;;;;5053118;28;20230;-88
2022/08/29 00:42:28;;;;;;;2.22;1.73;;;19.30;99.90;;;;;;5052686;28;20264;-89
2022/08/29 00:44:53;;;;;;;3.00;2.03;;;19.30;99.90;;;;;;5053173;28;20294;-89
2022/08/29 00:47:25;;;;;;;1.60;1.50;;;19.30;99.90;;;;;;5018464;28;20674;-88
2022/08/29 00:49:56;;;;;;;2.65;1.77;;;19.30;99.90;;;;;;5035374;28;20186;-89
2022/08/29 00:52:35;;;;;;;3.03;1.42;;;19.30;99.90;;;;;;5052831;28;20172;-89
2022/08/29 00:55:03;;;;;;;2.90;2.30;;;19.30;99.90;;;;;;5053005;28;20179;-88
2022/08/29 00:57:31;;;;;;;1.88;1.48;;;19.30;99.90;;;;;;5052606;28;20234;-88
2022/08/29 00:59:57;;;;;;;3.05;1.73;;;19.30;99.90;;;;;;5035257;28;20246;-90
2022/08/29 01:02:23;;;;;;;1.83;1.60;;;19.20;99.90;;;;;;5034790;28;20180;-89
2022/08/29 01:04:49;;;;;;;2.78;1.80;;;19.20;99.90;;;;;;5045674;28;20227;-88
2022/08/29 01:07:15;;;;;;;2.55;1.63;;;19.20;99.90;;;;;;5051519;28;20176;-89
2022/08/29 01:09:43;;;;;;;2.35;1.88;;;19.10;99.90;;;;;;5053371;28;20248;-89
2022/08/29 01:12:15;;;;;;;3.28;2.17;;;19.20;99.90;;;;;;5056902;28;20179;-90
2022/08/29 01:14:51;;;;;;;2.42;1.67;;;19.20;99.90;;;;;;5056092;28;20266;-89
2022/08/29 01:17:31;;;;;;;2.65;1.73;;;19.20;99.90;;;;;;5056232;28;20164;-89
2022/08/29 01:20:23;;;;;;;2.78;1.83;;;19.10;99.90;;;;;;5053039;28;20183;-90
2022/08/29 01:23:01;;;;;;;4.25;1.98;;;19.10;99.90;;;;;;5054750;28;20176;-90
2022/08/29 01:25:33;;;;;;;5.90;1.75;;;19.00;99.90;;;;;;5056234;28;20260;-90
2022/08/29 01:28:14;;;;;;;4.38;1.70;;;19.10;99.90;;;;;;5055427;28;20179;-90
2022/08/29 01:30:58;;;;;;;2.13;1.63;;;19.00;99.90;;;;;;5054332;28;20183;-90
2022/08/29 01:33:24;;;;;;;2.95;2.10;;;18.90;99.90;;;;;;5056046;28;20666;-90
2022/08/29 01:35:50;;;;;;;2.90;2.15;;;18.90;99.90;;;;;;5022276;28;20222;-90
2022/08/29 01:38:26;;;;;;;1.88;1.58;;;18.80;99.90;;;;;;5038552;28;20237;-90
2022/08/29 01:40:58;;;;;;;2.92;1.88;;;18.80;99.90;;;;;;5056275;28;20180;-91
2022/08/29 01:43:25;;;;;;;2.63;1.77;;;18.80;99.90;;;;;;5038293;28;20525;-89
2022/08/29 01:45:52;;;;;;;4.68;2.90;;;18.80;99.90;;;;;;5056360;28;20208;-89
2022/08/29 01:48:19;;;;;;;5.45;1.85;;;18.80;99.90;;;;;;5055853;28;20261;-90
2022/08/29 01:50:45;;;;;;;2.25;1.92;;;18.90;99.90;;;;;;5056682;28;20180;-90
2022/08/29 01:53:12;;;;;;;2.38;1.67;;;18.90;99.90;;;;;;5056188;28;20662;-90
2022/08/29 01:55:38;;;;;;;3.50;2.45;;;18.90;99.90;;;;;;5054411;28;20196;-88
2022/08/29 01:58:04;;;;;;;3.67;2.15;;;19.00;99.90;;;;;;5055805;28;20168;-88
2022/08/29 02:00:30;;;;;;;3.28;1.75;;;18.80;99.90;;;;;;5037749;28;20267;-87
2022/08/29 02:02:59;;;;;;;3.28;2.00;;;19.00;99.90;;;;;;5054539;28;20188;-88
2022/08/29 02:05:26;;;;;;;4.18;2.50;;;18.80;99.90;;;;;;5019420;28;20569;-87
2022/08/29 02:07:52;;;;;;;2.22;1.58;;;18.80;99.90;;;;;;5035605;28;20598;-86
2022/08/29 02:10:18;;;;;;;2.45;1.83;;;18.90;99.90;;;;;;5018000;28;20208;-86
2022/08/29 02:12:44;;;;;;;2.55;1.73;;;18.80;99.90;;;;;;5035510;28;20187;-87
2022/08/29 02:15:09;;;;;;;2.30;1.83;;;18.80;99.90;;;;;;5035696;28;20226;-87
2022/08/29 02:17:36;;;;;;;2.10;1.90;;;18.70;99.90;;;;;;5017605;28;20192;-86
2022/08/29 02:20:07;;;;;;;2.53;2.03;;;18.70;99.90;;;;;;5018143;28;20184;-86
2022/08/29 02:22:32;;;;;;;3.38;2.28;;;18.70;99.90;;;;;;5035320;28;20168;-87
2022/08/29 02:24:58;;;;;;;3.08;1.70;;;18.70;99.90;;;;;;5017843;28;20208;-87
2022/08/29 02:27:24;;;;;;;3.00;2.08;;;18.70;99.90;;;;;;5034901;28;20185;-89
2022/08/29 02:29:49;;;;;;;2.05;1.75;;;18.60;99.90;;;;;;4985398;28;20188;-90
2022/08/29 02:32:16;;;;;;;1.95;1.65;;;18.60;99.90;;;;;;5017748;28;20241;-90
2022/08/29 02:34:43;;;;;;;2.42;2.20;;;18.60;99.90;;;;;;5035112;28;20539;-89
2022/08/29 02:37:09;;;;;;;2.30;1.58;;;18.70;99.90;;;;;;5035165;28;20547;-90
2022/08/29 02:39:35;;;;;;;3.28;2.30;;;18.70;99.90;;;;;;5034978;28;20648;-87
2022/08/29 02:42:01;;;;;;;2.90;2.22;;;18.20;99.90;;;;;;5017366;28;20197;-90
2022/08/29 02:44:27;;;;;;;4.07;2.17;;;18.60;99.90;;;;;;5033498;28;20185;-89
2022/08/29 02:46:52;;;;;;;4.22;2.03;;;18.60;99.90;;;;;;5017421;28;20673;-91
2022/08/29 02:49:18;;;;;;;2.35;1.60;;;18.60;99.90;;;;;;5017448;28;20259;-89
2022/08/29 02:51:44;;;;;;;3.35;2.15;;;;;;;;;;5017184;28;20188;-90
2022/08/29 02:54:11;;;;;;;1.85;1.40;;;;;;;;;;5001079;28;20180;-89
2022/08/29 02:56:37;;;;;;;3.65;2.38;;;18.60;99.90;;;;;;5016544;28;20670;-88
2022/08/29 02:59:03;;;;;;;3.15;1.98;;;18.60;99.90;;;;;;5017385;28;20185;-89
2022/08/29 03:01:30;;;;;;;2.63;1.65;;;18.60;99.90;;;;;;5035032;28;20177;-89
2022/08/29 03:03:56;;;;;;;3.38;2.22;;;18.60;99.90;;;;;;5010756;28;20235;-90
2022/08/29 03:06:22;;;;;;;3.90;2.95;;;;;;;;;;5055472;28;20235;-89
2022/08/29 03:08:49;;;;;;;3.22;1.85;;;;;;;;;;5054508;28;20187;-89
2022/08/29 03:11:16;;;;;;;3.17;2.30;;;18.60;99.90;;;;;;5054417;28;20180;-88
2022/08/29 03:13:42;;;;;;;2.63;2.10;;;18.80;99.90;;;;;;5053254;28;20183;-89
2022/08/29 03:16:08;;;;;;;2.40;1.77;;;;;;;;;;5053342;28;20540;-91
2022/08/29 03:18:34;;;;;;;3.10;2.35;;;;;;;;;;5053179;28;20182;-88
2022/08/29 03:21:00;;;;;;;4.30;2.70;;;19.20;99.90;;;;;;5053313;28;20539;-90
2022/08/29 03:23:27;;;;;;;4.05;2.47;;;;;;;;;;5053119;28;20237;-88
2022/08/29 03:25:54;;;;;;;1.98;1.52;;;18.70;99.90;;;;;;5053244;28;20215;-89
2022/08/29 03:28:20;;;;;;;4.43;2.47;;;;;;;;;;5054365;28;20199;-86
2022/08/29 03:30:46;;;;;;;4.30;3.05;;;18.80;99.90;;;;;;5054054;28;20180;-88
2022/08/29 03:33:12;;;;;;;2.70;2.20;;;18.70;99.90;;;;;;5049635;28;20176;-87
2022/08/29 03:35:38;;;;;;;3.60;2.10;;;18.70;99.90;;;;;;5050519;28;20199;-87
2022/08/29 03:38:04;;;;;;;3.28;2.42;;;18.70;99.90;;;;;;5051218;28;20652;-86
2022/08/29 03:40:30;;;;;;;3.13;2.00;;;18.70;99.90;;;;;;5045722;28;20192;-88
2022/08/29 03:42:55;;;;;;;3.47;1.95;;;18.80;99.90;;;;;;5050325;28;20199;-87
2022/08/29 03:45:22;;;;;;;3.92;3.08;;;18.90;99.90;;;;;;5052017;28;20645;-88
2022/08/29 03:47:50;;;;;;;4.60;2.72;;;18.80;99.90;;;;;;5032297;28;20220;-86
2022/08/29 03:50:18;;;;;;;4.97;3.40;;;18.80;99.90;;;;;;5049697;28;20192;-86
2022/08/29 03:52:44;;;;;;;3.00;2.40;;;18.80;99.90;;;;;;5044267;28;20215;-86
2022/08/29 03:55:11;;;;;;;3.78;2.58;;;18.80;99.90;;;;;;5051645;28;20195;-88
2022/08/29 03:57:37;;;;;;;3.95;2.58;;;18.80;99.90;;;;;;5041216;28;20180;-87
2022/08/29 04:00:09;;;;;;;4.43;2.45;;;18.80;99.90;;;;;;5045302;28;20260;-87
2022/08/29 04:02:35;;;;;;;6.15;2.58;;;18.90;99.90;;;;;;5032396;28;20544;-86
2022/08/29 04:05:07;;;;;;;3.90;2.60;;;18.70;99.90;;;;;;5045330;28;20247;-86
2022/08/29 04:07:42;;;;;;;3.17;2.17;;;18.70;99.90;;;;;;5035720;28;20176;-87
2022/08/29 04:10:10;;;;;;;4.80;2.83;;;18.80;99.90;;;;;;5049386;28;20199;-87
2022/08/29 04:12:36;;;;;;;8.30;2.85;;;18.70;99.90;;;;;;5040935;28;20199;-86
2022/08/29 04:15:04;;;;;;;2.92;2.60;;;18.70;99.90;;;;;;5047676;28;20204;-89
2022/08/29 04:17:30;;;;;;;11.27;3.55;;;18.70;99.90;;;;;;5048134;28;20735;-87
2022/08/29 04:19:56;;;;;;;5.28;2.30;;;;;;;;;;5049390;28;20298;-87
2022/08/29 04:22:21;;;;;;;3.42;2.47;;;18.70;99.90;;;;;;5051294;28;20184;-86
2022/08/29 04:24:47;;;;;;;3.45;2.70;;;18.70;99.90;;;;;;5051476;28;20192;-86
2022/08/29 04:27:13;;;;;;;3.78;3.20;;;18.70;99.90;;;;;;5051104;28;20188;-86
2022/08/29 04:29:38;;;;;;;2.92;2.15;;;18.70;99.90;;;;;;5049851;28;20204;-87
2022/08/29 04:32:04;;;;;;;6.05;3.15;;;18.80;99.90;;;;;;5042817;28;20194;-87
2022/08/29 04:34:30;;;;;;;4.22;3.10;;;;;;;;;;5052837;28;20188;-87
2022/08/29 04:36:58;;;;;;;5.15;3.45;;;18.80;99.90;;;;;;5052580;28;20245;-87
2022/08/29 04:39:23;;;;;;;5.78;3.15;;;18.80;99.90;;;;;;5059750;28;20214;-87
2022/08/29 04:41:49;;;;;;;5.63;3.55;;;18.80;99.90;;;;;;5066436;28;20192;-88
2022/08/29 04:44:15;;;;;;;10.32;3.95;;;18.70;99.90;;;;;;5068063;28;20192;-87
2022/08/29 04:46:40;;;;;;;4.95;3.38;;;18.80;99.90;;;;;;5066069;28;20325;-87
2022/08/29 04:49:08;;;;;;;6.50;2.72;;;18.80;99.90;;;;;;5046785;28;20195;-87
2022/08/29 04:51:34;;;;;;;5.78;3.67;;;18.80;99.90;;;;;;5059587;28;20180;-88
2022/08/29 04:54:00;;;;;;;4.65;2.85;;;18.90;99.90;;;;;;5071148;28;20200;-88
2022/08/29 04:56:26;;;;;;;5.95;3.97;;;18.80;99.90;;;;;;5071401;28;20196;-88
2022/08/29 04:58:52;;;;;;;5.88;3.72;;;18.80;99.90;;;;;;5051882;28;20680;-89
2022/08/29 05:01:20;;;;;;;3.50;3.13;;;18.90;99.90;;;;;;5054064;28;20195;-90
2022/08/29 05:03:47;;;;;;;7.28;4.35;;;18.90;99.90;;;;;;5051501;28;20246;-88
2022/08/29 05:06:15;;;;;;;5.47;3.88;;;18.90;99.90;;;;;;5027420;28;20224;-88
2022/08/29 05:08:42;;;;;;;7.80;4.05;;;19.00;99.90;;;;;;5056234;28;20176;-89
2022/08/29 05:11:14;;;;;;;4.00;3.17;;;19.00;99.90;;;;;;5056880;28;20257;-86
2022/08/29 05:13:40;;;;;;;5.07;3.13;;;19.00;99.90;;;;;;5056404;28;20258;-86
2022/08/29 05:16:11;;;;;;;9.55;4.13;;;19.00;99.90;;;;;;5038571;28;20271;-87
2022/08/29 05:18:38;;;;;;;6.20;3.97;;;19.00;99.90;;;;;;5056650;28;20691;-87
2022/08/29 05:21:04;;;;;;;4.68;3.55;;;19.00;99.90;;;;;;5038665;28;20221;-86
2022/08/29 05:23:29;;;;;;;6.47;3.50;;;19.10;99.90;;;;;;5038604;28;20547;-87
2022/08/29 05:26:00;;;;;;;5.85;3.38;;;19.10;99.90;;;;;;5056230;28;20679;-87
2022/08/29 05:28:27;;;;;;;6.28;3.55;;;19.10;99.90;;;;;;5056203;28;20199;-86
2022/08/29 05:30:53;;;;;;;9.73;4.18;;;19.20;99.90;;;;;;5039033;28;20168;-88
2022/08/29 05:33:19;;;;;;;6.05;3.90;;;;;;;;;;5056566;28;20176;-86
2022/08/29 05:35:45;;;;;;;7.50;3.95;;;19.20;99.90;;;;;;5056496;28;20631;-87
2022/08/29 05:38:11;;;;;;;7.40;4.57;;;19.30;99.90;;;;;;5056065;28;20179;-86
2022/08/29 05:40:37;;;;;;;7.97;3.92;;;19.40;99.90;;;;;;5038209;28;20256;-88
2022/08/29 05:43:04;;;;;;;5.00;3.25;;;19.40;99.90;;;;;;5055840;28;20167;-88
2022/08/29 05:45:29;;;;;;;6.47;3.55;;;19.50;99.90;;;;;;5055703;28;20206;-87
2022/08/29 05:47:56;;;;;;;7.18;3.65;;;19.50;99.90;;;;;;5038361;28;20262;-88
2022/08/29 05:50:22;;;;;;;6.75;3.80;;;19.60;99.90;;;;;;5056484;28;20261;-87
2022/08/29 05:52:48;;;;;;;5.82;4.45;;;19.60;99.90;;;;;;5039644;28;20176;-88
2022/08/29 05:55:14;;;;;;;7.95;4.20;;;19.60;99.90;;;;;;5021978;28;20287;-87
2022/08/29 05:57:40;;;;;;;5.78;3.58;;;19.60;99.90;;;;;;5057226;28;20180;-87
2022/08/29 06:00:07;;;;;;;7.75;3.67;;;19.50;99.90;;;;;;5021402;28;20321;-88
2022/08/29 06:02:33;;;;;;;5.82;3.38;;;19.70;99.90;;;;;;5057181;28;20172;-88
2022/08/29 06:04:59;;;;;;;6.60;4.18;;;19.80;99.90;;;;;;5049868;28;20233;-87
2022/08/29 06:07:25;;;;;;;7.78;4.40;;;19.70;99.90;;;;;;5056059;28;20191;-87
2022/08/29 06:09:51;;;;;;;7.63;3.83;;;19.70;99.90;;;;;;5055691;28;20188;-88
2022/08/29 06:12:18;;;;;;;6.57;3.80;;;19.80;99.90;;;;;;5054824;28;20215;-87
2022/08/29 06:14:44;;;;;;;5.35;3.83;;;19.80;99.90;;;;;;5055596;28;20176;-87
2022/08/29 06:17:10;;;;;;;7.13;3.85;;;19.90;99.90;;;;;;5055091;28;20175;-88
2022/08/29 06:19:38;;;;;;;8.07;4.15;;;19.90;99.90;;;;;;5055643;28;20255;-86
2022/08/29 06:22:05;;;;;;;5.57;3.70;;;19.90;99.90;;;;;;5055221;28;20176;-87
2022/08/29 06:24:32;;;;;;;5.80;3.33;;;19.90;99.90;;;;;;5055904;28;20548;-85
2022/08/29 06:26:59;;;;;;;5.80;3.35;;;19.90;99.90;;;;;;5055157;28;20204;-85
2022/08/29 06:29:26;;;;;;;5.68;3.95;;;19.90;99.90;;;;;;5055366;28;20329;-85
2022/08/29 06:31:54;;;;;;;6.80;4.53;;;19.90;99.90;;;;;;5054313;28;20636;-85
2022/08/29 06:34:19;;;;;;;7.05;3.83;;;19.90;99.90;;;;;;5055415;28;20176;-85
2022/08/29 06:36:45;;;;;;;5.90;4.20;;;19.90;99.90;;;;;;5054003;28;20257;-84
2022/08/29 06:39:10;;;;;;;5.22;3.47;;;20.00;99.90;;;;;;5053798;28;20266;-84
2022/08/29 06:41:41;;;;;;;5.57;4.38;;;20.00;99.90;;;;;;5064485;28;20192;-84
2022/08/29 06:44:07;;;;;;;9.20;3.30;;;20.10;99.90;;;;;;5071574;28;20194;-84
2022/08/29 06:46:37;;;;;;;7.50;3.97;;;20.10;99.90;;;;;;5067915;28;20203;-84
2022/08/29 06:49:04;;;;;;;5.20;2.88;;;20.20;99.90;;;;;;5057501;28;20180;-84
2022/08/29 06:51:32;;;;;;;5.18;3.42;;;20.20;99.90;;;;;;5054304;28;20171;-84
2022/08/29 06:54:02;;;;;;;5.97;3.15;;;20.20;99.90;;;;;;5054936;28;20176;-84
2022/08/29 06:56:29;;;;;;;6.30;3.97;;;20.20;99.90;;;;;;5054945;28;20175;-84
2022/08/29 06:58:55;;;;;;;5.32;3.42;;;20.20;99.90;;;;;;5054117;28;20195;-85
2022/08/29 07:01:22;;;;;;;8.40;4.40;;;20.20;99.90;;;;;;5053663;28;20656;-85
2022/08/29 07:03:48;;;;;;;7.18;3.45;;;20.20;99.90;;;;;;5054493;28;20224;-85
2022/08/29 07:06:15;;;;;;;9.85;4.55;;;20.20;99.90;;;;;;5053626;28;20214;-84
2022/08/29 07:08:41;;;;;;;8.32;3.97;;;20.10;99.90;;;;;;5036317;28;20183;-85
2022/08/29 07:11:06;;;;;;;7.72;4.18;;;20.20;99.90;;;;;;5035796;28;20187;-85
2022/08/29 07:13:33;;;;;;;8.02;4.53;;;20.10;99.90;;;;;;5054219;28;20184;-85
2022/08/29 07:15:59;;;;;;;7.13;4.15;;;;;;;;;;5036220;28;20176;-86
2022/08/29 07:18:25;;;;;;;4.20;2.97;;;20.20;99.90;;;;;;5053881;28;20172;-85
2022/08/29 07:20:51;;;;;;;5.50;4.07;;;20.20;99.90;;;;;;5053635;28;20222;-84
2022/08/29 07:23:17;;;;;;;9.55;4.13;;;20.20;99.90;;;;;;5053312;28;20179;-85
2022/08/29 07:25:42;;;;;;;9.02;4.75;;;20.20;99.90;;;;;;5053307;28;20208;-85
2022/08/29 07:28:08;;;;;;;6.43;4.35;;;20.30;99.90;;;;;;5049151;28;20189;-85
2022/08/29 07:30:34;;;;;;;11.65;4.88;;;20.40;99.90;;;;;;4998929;28;20191;-84
2022/08/29 07:33:00;;;;;;;8.38;5.32;;;;;;;;;;5015887;28;20641;-85
2022/08/29 07:35:26;;;;;;;6.40;4.03;;;20.50;99.90;;;;;;5033217;28;20176;-85
2022/08/29 07:37:56;;;;;;;8.23;4.60;;;20.50;99.90;;;;;;5015584;28;20192;-86
2022/08/29 07:40:21;;;;;;;7.18;3.85;;;20.40;99.90;;;;;;5033501;28;20208;-85
2022/08/29 07:42:47;;;;;;;8.63;4.95;;;20.40;99.90;;;;;;5033435;28;20176;-85
2022/08/29 07:45:13;;;;;;;7.97;4.75;;;20.40;99.90;;;;;;5015368;28;20696;-85
2022/08/29 07:47:39;;;;;;;11.77;4.93;;;20.50;99.90;;;;;;5033410;28;20331;-85
2022/08/29 07:50:08;;;;;;;5.50;3.50;;;20.50;99.90;;;;;;5033091;28;20556;-86
2022/08/29 07:52:34;;;;;;;3.83;2.72;;;20.50;99.90;;;;;;5027215;28;20176;-85
2022/08/29 07:55:00;;;;;;;3.22;1.77;;;20.40;99.90;;;;;;5053597;28;20713;-84
2022/08/29 07:57:26;;;;;;;2.03;1.70;;;20.30;99.90;;;;;;5035531;28;20183;-85
2022/08/29 07:59:52;;;;;;;3.75;1.77;;;20.20;99.90;;;;;;5040005;28;20705;-86
2022/08/29 08:02:18;;;;;;;2.67;1.58;;;20.20;99.90;;;;;;5041946;28;20559;-86
2022/08/29 08:04:44;;;;;;;1.98;1.67;;;20.20;99.90;;;;;;5017682;28;20236;-85
2022/08/29 08:07:10;;;;;;;3.60;2.33;;;;;;;;;;5026991;28;20207;-86
2022/08/29 08:09:37;;;;;;;2.22;1.65;;;20.00;99.90;;;;;;5039240;28;20270;-85
2022/08/29 08:12:04;;;;;;;2.80;1.85;;;19.90;99.90;;;;;;5039694;28;20226;-85
2022/08/29 08:14:31;;;;;;;3.75;2.70;;;19.90;99.90;;;;;;5039787;28;20176;-85
2022/08/29 08:16:57;;;;;;;3.30;2.17;;;19.80;99.90;;;;;;5039117;28;20184;-86
2022/08/29 08:19:24;;;;;;;2.42;2.05;;;;;;;;;;5032639;28;20543;-86
2022/08/29 08:21:50;;;;;;;2.50;1.75;;;19.60;99.90;;;;;;5035812;28;20191;-86
2022/08/29 08:24:18;;;;;;;4.05;2.42;;;19.60;99.90;;;;;;5042219;28;20631;-86
2022/08/29 08:26:44;;;;;;;3.03;2.45;;;19.50;99.90;;;;;;5039088;28;20207;-85
2022/08/29 08:29:11;;;;;;;3.95;2.67;;;19.60;99.90;;;;;;5043030;28;20271;-85
2022/08/29 08:31:45;;;;;;;6.68;3.08;;;19.60;99.90;;;;;;5042883;28;20180;-85
2022/08/29 08:34:14;;;;;;;5.47;3.30;;;;;;;;;;5042824;28;20260;-86
2022/08/29 08:36:41;;;;;;;3.47;2.78;;;19.70;99.90;;;;;;5039151;28;20178;-84
2022/08/29 08:39:08;;;;;;;4.47;2.92;;;19.70;99.90;;;;;;5039494;28;20273;-85
2022/08/29 08:42:05;;;;;;;6.22;3.28;;;19.80;99.90;;;;;;5027160;28;20187;-85
2022/08/29 08:45:01;;;;;;;5.63;3.60;;;19.80;99.90;;;;;;5040027;28;20223;-86
2022/08/29 08:47:33;;;;;;;4.35;3.50;;;19.90;99.90;;;;;;5045450;28;20187;-87
2022/08/29 08:50:33;;;;;;;10.40;4.38;;;19.90;99.90;;;;;;5044375;28;20187;-86
2022/08/29 08:53:08;;;;;;;5.00;3.35;;;20.00;99.90;;;;;;5035245;28;20191;-86
2022/08/29 08:55:49;;;;;;;5.30;3.53;;;20.00;99.90;;;;;;5052095;28;20270;-86
2022/08/29 08:58:24;;;;;;;5.75;3.92;;;20.00;99.90;;;;;;5032377;28;20575;-86
2022/08/29 09:01:19;;;;;;;6.15;3.38;;;20.00;99.90;;;;;;5031299;28;20175;-85
2022/08/29 09:04:09;;;;;;;4.72;4.13;;;19.90;99.90;;;;;;5033230;28;20230;-86
2022/08/29 09:06:44;;;;;;;6.63;3.58;;;19.90;99.90;;;;;;5016039;28;20690;-85
2022/08/29 09:09:19;;;;;;;7.43;3.78;;;19.80;99.90;;;;;;5032662;28;20203;-86
2022/08/29 09:11:54;;;;;;;6.25;3.63;;;19.90;99.90;;;;;;5015227;28;20524;-87
2022/08/29 09:14:53;;;;;;;5.68;3.40;;;19.90;99.90;;;;;;5032177;28;20180;-84
2022/08/29 09:17:23;;;;;;;5.93;3.78;;;20.00;99.90;;;;;;5014264;28;20189;-88
2022/08/29 09:19:50;;;;;;;4.70;3.55;;;20.00;99.90;;;;;;5032525;28;20196;-87
2022/08/29 09:22:23;;;;;;;5.55;3.05;;;20.00;99.90;;;;;;5015066;28;20176;-86
2022/08/29 09:24:58;;;;;;;3.85;3.00;;;20.00;99.90;;;;;;5032785;28;20177;-86
2022/08/29 09:27:29;;;;;;;7.32;2.67;;;20.10;99.90;;;;;;5014639;28;20227;-86
2022/08/29 09:30:08;;;;;;;6.95;3.78;;;20.00;99.90;;;;;;5032861;28;20161;-87
2022/08/29 09:32:55;;;;;;;4.97;3.15;;;20.30;99.90;;;;;;5014549;28;20266;-88
2022/08/29 09:35:31;;;;;;;3.90;2.90;;;20.20;99.90;;;;;;5032387;28;20180;-87
2022/08/29 09:38:07;;;;;;;5.63;3.58;;;20.20;99.90;;;;;;5033049;28;20243;-88
2022/08/29 09:40:49;;;;;;;7.40;3.75;;;20.30;99.90;;;;;;5032856;28;20186;-87
2022/08/29 09:43:17;;;;;;;8.25;4.38;;;20.50;99.90;;;;;;5033034;28;20187;-86
2022/08/29 09:46:10;;;;;;;6.40;3.80;;;20.40;99.90;;;;;;5032844;28;20293;-86
2022/08/29 09:48:38;;;;;;;5.10;3.25;;;20.30;99.90;;;;;;5032942;28;20184;-86
2022/08/29 09:51:28;;;;;;;9.23;4.18;;;20.50;99.90;;;;;;5032691;28;20399;-86
2022/08/29 09:54:14;;;;;;;4.25;3.17;;;20.50;99.90;;;;;;5035647;28;20259;-86
2022/08/29 09:56:49;;;;;;;4.63;2.70;;;20.50;99.90;;;;;;5018921;28;20184;-85
2022/08/29 09:59:28;;;;;;;5.05;3.33;;;20.50;99.90;;;;;;5036994;28;20160;-86
2022/08/29 10:02:18;;;;;;;4.22;3.05;;;20.50;99.90;;;;;;5019100;28;20172;-86
2022/08/29 10:04:47;;;;;;;7.03;3.88;;;20.60;99.90;;;;;;5036434;28;20619;-87
2022/08/29 10:07:19;;;;;;;6.60;3.15;;;20.80;99.90;;;;;;5036630;28;20250;-87
2022/08/29 10:09:59;;;;;;;4.00;3.08;;;20.90;99.90;;;;;;5038469;28;20203;-86
2022/08/29 10:13:04;;;;;;;3.30;2.85;;;21.20;99.90;;;;;;5037287;28;20188;-86
2022/08/29 10:15:33;;;;;;;5.30;3.10;;;21.20;99.90;;;;;;5019256;28;20191;-86
2022/08/29 10:18:27;;;;;;;4.18;2.65;;;21.30;99.90;;;;;;5036222;28;20228;-87
2022/08/29 10:21:09;;;;;;;8.45;4.07;;;21.30;99.90;;;;;;5036013;28;20177;-87
2022/08/29 10:23:48;;;;;;;4.57;2.80;;;21.40;99.90;;;;;;5018389;28;20532;-86
2022/08/29 10:26:49;;;;;;;4.15;2.58;;;21.50;99.90;;;;;;5018492;28;20211;-86
2022/08/29 10:29:53;;;;;;;5.50;2.85;;;21.50;99.90;;;;;;5036018;28;20253;-87
2022/08/29 10:32:41;;;;;;;5.15;3.00;;;21.50;99.90;;;;;;5036286;28;20178;-85
2022/08/29 10:35:15;;;;;;;3.53;2.50;;;21.50;99.90;;;;;;5036765;28;20644;-86
2022/08/29 10:38:14;;;;;;;2.67;2.00;;;21.60;99.90;;;;;;5051639;28;20179;-85
2022/08/29 10:40:48;;;;;;;5.13;2.80;;;21.90;99.90;;;;;;5039592;28;20266;-85
2022/08/29 10:43:32;;;;;;;2.88;2.13;;;22.00;99.90;;;;;;5057947;28;20229;-85
2022/08/29 10:46:19;;;;;;;3.33;2.20;;;22.10;99.90;;;;;;5039807;28;20325;-85
2022/08/29 10:48:50;;;;;;;3.55;2.38;;;22.20;99.90;;;;;;5054193;28;20191;-84
2022/08/29 10:51:30;;;;;;;4.32;2.67;;;22.20;99.90;;;;;;5059364;28;20171;-85
2022/08/29 10:54:29;;;;;;;3.47;2.88;;;22.50;99.90;;;;;;5057002;28;20180;-88
2022/08/29 10:56:54;;;;;;;4.13;2.22;;;22.20;99.90;;;;;;5056132;28;20243;-84
2022/08/29 10:59:45;;;;;;;3.15;2.22;;;22.20;99.90;;;;;;5060407;28;20180;-88
2022/08/29 11:02:37;;;;;;;3.75;2.75;;;22.20;99.90;;;;;;5077071;28;20180;-85
2022/08/29 11:05:11;;;;;;;3.22;2.28;;;22.20;99.90;;;;;;5042194;28;20223;-84
2022/08/29 11:07:50;;;;;;;3.80;2.50;;;21.90;99.90;;;;;;5053601;28;20477;-86
2022/08/29 11:10:21;;;;;;;4.07;3.00;;;21.90;99.90;;;;;;5054397;28;20183;-84
2022/08/29 11:12:57;;;;;;;2.92;1.90;;;21.90;99.90;;;;;;5053922;28;20167;-83
2022/08/29 11:15:36;;;;;;;3.15;2.30;;;21.80;99.90;;;;;;5054173;28;20535;-85
2022/08/29 11:18:23;;;;;;;14.35;2.72;;;21.80;99.90;;;;;;5052350;28;20170;-90
2022/08/29 11:20:57;;;;;;;2.33;1.73;;;21.70;99.90;;;;;;5043708;28;20207;-85
2022/08/29 11:23:45;;;;;;;4.07;2.38;;;21.50;99.90;;;;;;5053773;28;20639;-86
2022/08/29 11:26:17;;;;;;;2.50;1.90;;;21.50;99.90;;;;;;5051443;28;20210;-85
2022/08/29 11:28:56;;;;;;;4.43;2.75;;;21.50;99.90;;;;;;5041462;28;20169;-87
2022/08/29 11:31:42;;;;;;;4.22;2.58;;;21.70;99.90;;;;;;5049462;28;20187;-84
2022/08/29 11:34:38;;;;;;;3.40;2.25;;;21.80;99.90;;;;;;5042669;28;20519;-86
2022/08/29 11:37:29;;;;;;;3.35;2.00;;;21.80;99.90;;;;;;5050991;28;20176;-84
2022/08/29 11:40:08;;;;;;;3.55;2.15;;;22.00;99.90;;;;;;5054270;28;20199;-85
2022/08/29 11:42:38;;;;;;;5.57;2.63;;;22.30;99.90;;;;;;5054016;28;20188;-84
2022/08/29 11:45:06;;;;;;;4.25;2.20;;;22.40;99.90;;;;;;5042733;28;20176;-85
2022/08/29 11:47:43;;;;;;;2.90;2.25;;;22.30;99.90;;;;;;5052734;28;20671;-85
2022/08/29 11:50:15;;;;;;;4.22;2.70;;;22.30;99.90;;;;;;5034979;28;20262;-85
2022/08/29 11:53:11;;;;;;;4.00;3.00;;;22.30;99.90;;;;;;5034300;28;20648;-85
2022/08/29 11:56:04;;;;;;;2.33;1.83;;;22.30;99.90;;;;;;5032671;28;20188;-88
2022/08/29 11:58:32;;;;;;;2.45;1.88;;;22.40;99.90;;;;;;5040325;28;20279;-85
2022/08/29 12:00:58;;;;;;;2.53;1.88;;;22.50;99.90;;;;;;5035610;28;20245;-85
2022/08/29 12:03:33;;;;;;;3.67;1.77;;;22.60;99.90;;;;;;5045053;28;20270;-84
2022/08/29 12:06:01;;;;;;;2.13;1.27;;;22.80;99.90;;;;;;5051520;28;20187;-86
2022/08/29 12:08:36;;;;;;;4.97;2.45;;;22.90;99.90;;;;;;5040155;28;20189;-85
2022/08/29 12:11:03;;;;;;;2.92;1.63;;;22.80;99.90;;;;;;5048097;28;20167;-84
2022/08/29 12:13:47;;;;;;;2.92;1.60;;;22.70;99.90;;;;;;5060655;28;20179;-87
2022/08/29 12:16:22;;;;;;;3.17;2.22;;;22.90;99.90;;;;;;5067735;28;20294;-85
2022/08/29 12:18:49;;;;;;;3.50;1.75;;;23.00;99.90;;;;;;5047590;28;20187;-86
2022/08/29 12:21:43;;;;;;;1.55;1.30;;;23.30;99.90;;;;;;5046367;28;20172;-87
2022/08/29 12:24:40;;;;;;;2.20;1.60;;;23.40;99.90;;;;;;5023503;28;20191;-85
2022/08/29 12:27:40;;;;;;;1.55;1.27;;;23.20;99.90;;;;;;5045680;28;20200;-84
2022/08/29 12:30:09;;;;;;;2.47;1.92;;;23.10;99.90;;;;;;5029746;28;20184;-85
2022/08/29 12:32:56;;;;;;;14.93;2.22;;;23.00;99.90;;;;;;5018504;28;20180;-84
2022/08/29 12:35:45;;;;;;;2.63;1.15;;;23.00;99.90;;;;;;5047602;28;20262;-86
2022/08/29 12:38:37;;;;;;;4.47;1.25;;;23.00;99.90;;;;;;5050913;28;20258;-84
2022/08/29 12:41:21;;;;;;;1.15;1.05;;;23.40;99.90;;;;;;5035306;28;20187;-84
2022/08/29 12:43:53;;;;;;;2.05;1.38;;;23.50;99.90;;;;;;5053352;28;20191;-86
2022/08/29 12:46:19;;;;;;;1.35;1.08;;;;;;;;;;5053582;28;20199;-86
2022/08/29 12:48:51;;;;;;;2.72;1.25;;;24.00;99.90;;;;;;5035041;28;20187;-83
2022/08/29 12:51:37;;;;;;;2.42;1.20;;;24.30;99.90;;;;;;5053190;28;20172;-85
2022/08/29 12:54:04;;;;;;;2.83;1.05;;;24.30;99.90;;;;;;5019712;28;20248;-84
2022/08/29 12:56:31;;;;;;;2.10;1.55;;;24.40;99.90;;;;;;5035042;28;20639;-84
2022/08/29 12:58:59;;;;;;;2.13;1.27;;;24.40;99.90;;;;;;5052411;28;20266;-84
2022/08/29 13:01:24;;;;;;;2.60;1.50;;;24.40;99.90;;;;;;5052723;28;20171;-84
2022/08/29 13:03:59;;;;;;;1.80;0.88;;;24.10;99.90;;;;;;5052383;28;20223;-84
2022/08/29 13:06:26;;;;;;;1.23;1.00;;;24.00;99.90;;;;;;5034941;28;20293;-83
2022/08/29 13:08:52;;;;;;;1.75;1.20;;;;;;;;;;5034982;28;20183;-85
2022/08/29 13:11:21;;;;;;;1.42;1.10;;;24.40;99.90;;;;;;5052469;28;20263;-85
2022/08/29 13:13:48;;;;;;;1.10;0.85;;;24.40;99.90;;;;;;5052126;28;20184;-86